createdAt,value
2022-10-26T00:20:54.000Z,9.0
2022-10-26T00:50:57.000Z,9.1
2022-10-26T01:21:06.000Z,9.3
2022-10-26T01:51:08.000Z,9.0
2022-10-26T02:21:10.000Z,9.0
2022-10-26T02:51:14.000Z,9.1
2022-10-26T03:21:18.000Z,9.4
2022-10-26T03:51:18.000Z,9.6
2022-10-26T04:21:19.000Z,9.6
2022-10-26T04:51:22.000Z,9.1
2022-10-26T05:21:25.000Z,9.0
2022-10-26T05:51:26.000Z,9.6
2022-10-26T06:21:35.000Z,9.8
2022-10-26T06:51:37.000Z,10.5
2022-10-26T07:21:47.000Z,11.5
2022-10-26T07:51:49.000Z,12.3
2022-10-26T08:21:51.000Z,13.5
2022-10-26T08:51:58.000Z,14.5
2022-10-26T09:21:59.000Z,14.5
2022-10-26T09:52:06.000Z,14.4
2022-10-26T10:22:07.000Z,16.1
2022-10-26T10:52:08.000Z,16.7
2022-10-26T11:22:10.000Z,17.6
2022-10-26T11:52:11.000Z,19.1
2022-10-26T12:22:11.000Z,19.9
2022-10-26T12:52:22.000Z,19.5
2022-10-26T13:22:22.000Z,19.6
2022-10-26T13:52:24.000Z,18.4
2022-10-26T14:22:25.000Z,18.0
2022-10-26T14:52:27.000Z,16.1
2022-10-26T15:22:39.000Z,15.3
2022-10-26T15:52:41.000Z,14.6
2022-10-26T16:22:43.000Z,13.4
2022-10-26T16:52:45.000Z,12.7
2022-10-26T17:22:52.000Z,11.9
2022-10-26T17:52:53.000Z,11.2
2022-10-26T18:23:02.000Z,10.8
2022-10-26T18:53:06.000Z,10.3
2022-10-26T19:23:07.000Z,9.7
2022-10-26T19:53:09.000Z,9.5
2022-10-26T20:01:07.000Z,9.3
2022-10-26T20:31:09.000Z,8.8
2022-10-26T20:51:24.000Z,8.5
2022-10-26T21:21:27.000Z,8.3
2022-10-26T21:51:28.000Z,8.3
2022-10-26T22:21:38.000Z,8.7
2022-10-26T22:51:40.000Z,9.1
2022-10-26T23:21:41.000Z,9.2
2022-10-26T23:51:42.981Z,9.3
